Time;durP1;ratioP1;P1;durP2;ratioP2;P2;SDS_P1;SDS_P2;PMS_P1;PMS_P2;Temp;Humidity;BMP_temperature;BMP_pressure;BME280_temperature;BME280_humidity;BME280_pressure;Samples;Min_cycle;Max_cycle;Signal;HPM_P1;HPM_P2
2021/03/23 00:02:14;;;;;;;87.95;40.98;;;;;;;2.85;56.36;99277.44;248680;1153;114536;-65
2021/03/23 00:07:17;;;;;;;86.93;42.43;;;;;;;2.85;56.01;99272.18;248646;1159;114691;-66
2021/03/23 00:12:20;;;;;;;82.17;41.05;;;;;;;2.85;56.27;99272.18;248642;1159;114545;-66
2021/03/23 00:17:23;;;;;;;86.95;42.38;;;;;;;2.88;56.71;99269.47;248649;1153;114313;-66
2021/03/23 00:22:26;;;;;;;100.93;46.28;;;;;;;2.96;56.87;99259.63;248579;1153;114327;-67
2021/03/23 00:27:29;;;;;;;89.28;43.98;;;;;;;2.99;56.92;99256.03;248715;1153;115296;-67
2021/03/23 00:32:32;;;;;;;93.00;44.35;;;;;;;2.94;56.80;99261.42;248687;1158;114502;-66
2021/03/23 00:37:37;;;;;;;100.55;44.58;;;;;;;2.93;57.04;99261.48;248791;1153;114588;-67
2021/03/23 00:42:40;;;;;;;102.35;45.80;;;;;;;2.89;57.37;99268.59;248613;1154;114810;-66
2021/03/23 00:47:43;;;;;;;93.88;46.65;;;;;;;2.89;57.19;99265.08;248808;1153;114114;-69
2021/03/23 00:52:47;;;;;;;105.95;48.50;;;;;;;2.83;57.33;99264.35;248696;1159;114626;-70
2021/03/23 00:58:00;;;;;;;100.60;46.00;;;;;;;2.83;57.48;99263.50;248622;1153;114878;-69
2021/03/23 01:03:06;;;;;;;99.15;46.90;;;;;;;2.88;57.53;99258.10;247608;1153;114969;-73
2021/03/23 01:08:11;;;;;;;108.55;49.50;;;;;;;2.90;57.72;99259.80;248641;1159;114484;-72
2021/03/23 01:13:28;;;;;;;114.13;51.18;;;;;;;2.88;57.62;99253.70;248689;1153;114822;-76
2021/03/23 01:18:31;;;;;;;114.63;53.65;;;;;;;2.83;57.83;99252.98;247312;1154;115380;-73
2021/03/23 01:23:34;;;;;;;103.18;49.95;;;;;;;2.82;57.70;99238.98;248687;1159;114580;-69
2021/03/23 01:28:37;;;;;;;103.15;49.43;;;;;;;2.82;57.90;99248.64;248666;1154;114500;-69
2021/03/23 01:33:42;;;;;;;100.10;48.35;;;;;;;2.81;58.14;99252.15;248694;1153;115048;-70
2021/03/23 01:38:49;;;;;;;104.00;48.80;;;;;;;2.79;57.97;99253.98;248666;1153;114604;-70
2021/03/23 01:43:53;;;;;;;107.10;49.00;;;;;;;2.78;57.86;99255.72;248651;1153;115315;-71
2021/03/23 01:48:58;;;;;;;101.83;49.47;;;;;;;2.77;58.07;99253.14;245602;1153;115099;-67
2021/03/23 01:54:15;;;;;;;109.45;50.53;;;;;;;2.72;58.43;99252.42;248709;1159;115080;-68
2021/03/23 01:59:20;;;;;;;106.37;50.07;;;;;;;2.67;58.37;99242.02;248711;1153;114741;-67
2021/03/23 02:04:23;;;;;;;118.13;52.70;;;;;;;2.63;58.29;99242.14;248591;1159;115106;-68
2021/03/23 02:09:33;;;;;;;110.93;52.43;;;;;;;2.60;58.44;99243.94;248685;1155;114929;-69
2021/03/23 02:14:43;;;;;;;102.28;49.40;;;;;;;2.61;58.76;99250.05;248627;1159;114572;-69
2021/03/23 02:19:46;;;;;;;102.30;49.08;;;;;;;2.68;59.12;99238.47;247799;1159;115170;-70
2021/03/23 02:24:49;;;;;;;108.53;51.18;;;;;;;2.69;58.75;99236.73;248670;1154;114694;-70
2021/03/23 02:30:00;;;;;;;93.97;49.70;;;;;;;2.71;59.06;99234.91;245590;1153;114696;-70
2021/03/23 02:35:08;;;;;;;98.45;47.00;;;;;;;2.72;58.94;99234.88;248662;1155;114683;-71
2021/03/23 02:40:12;;;;;;;95.13;42.75;;;;;;;2.72;59.08;99234.88;248637;1159;114704;-73
2021/03/23 02:45:15;;;;;;;97.73;49.60;;;;;;;2.74;59.19;99229.57;248679;1153;114940;-72
2021/03/23 02:50:20;;;;;;;91.50;44.90;;;;;;;2.77;59.04;99226.86;248663;1153;115165;-72
2021/03/23 02:55:26;;;;;;;93.30;47.35;;;;;;;2.78;59.40;99225.95;248551;1153;114711;-74
2021/03/23 03:00:32;;;;;;;86.95;41.90;;;;;;;2.79;59.13;99225.92;248700;1152;114523;-70
2021/03/23 03:05:35;;;;;;;90.75;43.88;;;;;;;2.82;59.29;99228.47;248674;1159;114351;-71
2021/03/23 03:10:38;;;;;;;84.98;41.75;;;;;;;2.87;59.10;99227.48;248633;1153;114506;-69
2021/03/23 03:15:42;;;;;;;81.55;39.28;;;;;;;2.84;59.20;99223.16;248777;1153;114511;-68
2021/03/23 03:20:45;;;;;;;79.98;37.18;;;;;;;2.81;59.02;99236.38;248717;1154;114772;-71
2021/03/23 03:25:49;;;;;;;83.28;41.13;;;;;;;2.79;59.10;99227.70;248716;1153;115026;-71
2021/03/23 03:30:52;;;;;;;81.58;40.70;;;;;;;2.86;59.36;99226.63;248690;1153;115056;-69
2021/03/23 03:35:58;;;;;;;80.45;39.58;;;;;;;2.87;59.39;99225.70;248706;1153;114506;-69
2021/03/23 03:41:00;;;;;;;77.38;39.00;;;;;;;2.85;59.21;99219.62;248753;1153;114501;-69
2021/03/23 03:46:04;;;;;;;80.45;42.50;;;;;;;2.81;58.96;99218.84;248721;1153;114684;-68
2021/03/23 03:51:08;;;;;;;80.18;40.23;;;;;;;2.78;59.08;99220.70;248738;1153;115255;-67
2021/03/23 03:56:11;;;;;;;83.13;42.45;;;;;;;2.81;59.19;99225.88;248577;1154;114849;-66
2021/03/23 04:01:21;;;;;;;76.53;38.98;;;;;;;2.81;59.41;99228.50;248730;1155;115232;-74
2021/03/23 04:06:25;;;;;;;81.87;40.67;;;;;;;2.72;59.08;99218.27;248614;1154;115384;-65
2021/03/23 04:11:28;;;;;;;93.50;44.33;;;;;;;2.73;59.42;99230.48;248651;1154;114501;-68
2021/03/23 04:16:38;;;;;;;88.42;43.43;;;;;;;2.77;59.52;99232.12;248535;1154;114964;-72
2021/03/23 04:21:44;;;;;;;87.23;44.58;;;;;;;2.74;59.40;99224.31;248562;1159;114458;-67
2021/03/23 04:27:13;;;;;;;92.53;44.93;;;;;;;2.72;59.22;99232.26;248365;1156;114609;-70
2021/03/23 04:32:16;;;;;;;86.85;42.90;;;;;;;2.69;59.60;99237.59;248509;1153;114775;-69
2021/03/23 04:37:21;;;;;;;86.58;40.38;;;;;;;2.74;59.61;99237.45;248637;1155;114549;-68
2021/03/23 04:42:24;;;;;;;89.63;43.65;;;;;;;2.79;59.42;99244.33;248559;1154;114658;-68
2021/03/23 04:47:29;;;;;;;82.48;41.40;;;;;;;2.75;59.36;99247.05;248453;1159;115124;-68
2021/03/23 04:52:35;;;;;;;84.00;41.78;;;;;;;2.71;59.29;99243.64;248775;1153;114643;-68
2021/03/23 04:57:37;;;;;;;81.23;40.50;;;;;;;2.70;59.51;99238.45;248532;1161;114275;-68
2021/03/23 05:02:40;;;;;;;86.43;41.45;;;;;;;2.71;59.76;99242.79;247973;1152;114765;-71
2021/03/23 05:07:47;;;;;;;83.18;40.15;;;;;;;2.78;59.73;99249.60;248636;1153;114513;-68
2021/03/23 05:12:53;;;;;;;79.38;42.08;;;;;;;2.84;59.55;99239.78;247903;1159;114862;-69
2021/03/23 05:18:03;;;;;;;80.50;41.15;;;;;;;2.89;59.43;99247.56;248813;1153;114669;-69
2021/03/23 05:23:06;;;;;;;81.13;39.98;;;;;;;2.87;59.14;99249.36;245411;1154;114462;-69
2021/03/23 05:28:10;;;;;;;80.63;37.43;;;;;;;2.84;59.27;99242.41;248762;1153;114643;-69
2021/03/23 05:33:14;;;;;;;75.20;37.03;;;;;;;2.88;59.24;99240.56;248815;1153;114383;-69
2021/03/23 05:38:18;;;;;;;79.30;38.05;;;;;;;2.90;59.46;99249.28;248629;1159;114299;-71
2021/03/23 05:43:30;;;;;;;80.75;39.93;;;;;;;3.02;59.43;99241.06;248712;1153;114575;-68
2021/03/23 05:48:35;;;;;;;68.50;35.23;;;;;;;3.11;58.94;99247.81;248261;1153;114840;-70
2021/03/23 05:53:51;;;;;;;73.70;35.98;;;;;;;3.13;59.03;99259.16;248541;1152;114560;-73
2021/03/23 06:00:00;;;;;;;76.30;36.55;;;;;;;3.17;59.06;99267.83;248714;1155;115033;-70
2021/03/23 06:05:18;;;;;;;65.30;31.45;;;;;;;3.26;59.04;99268.42;248244;1159;114830;-72
2021/03/23 06:10:38;;;;;;;73.88;34.65;;;;;;;3.26;58.73;99268.42;248266;1153;115244;-68
2021/03/23 06:16:30;;;;;;;76.13;38.15;;;;;;;3.37;58.94;99270.74;245684;1154;114500;-69
2021/03/23 06:22:08;;;;;;;73.58;36.10;;;;;;;3.44;58.79;99269.66;245603;1155;115508;-70
2021/03/23 06:27:24;;;;;;;74.63;37.70;;;;;;;3.45;58.76;99267.88;244693;1153;114705;-69
2021/03/23 06:32:56;;;;;;;74.85;37.40;;;;;;;3.51;58.67;99276.45;246397;1159;115452;-72
2021/03/23 06:38:07;;;;;;;78.90;38.10;;;;;;;3.56;58.80;99271.90;247895;1159;114974;-69
2021/03/23 06:43:27;;;;;;;78.80;41.05;;;;;;;3.63;58.60;99272.58;245772;1154;114586;-69
2021/03/23 06:48:32;;;;;;;77.40;38.08;;;;;;;3.73;58.21;99273.17;247799;1153;114840;-71
2021/03/23 06:53:35;;;;;;;73.50;35.50;;;;;;;3.70;58.40;99276.78;248604;1153;114523;-69
2021/03/23 06:58:40;;;;;;;72.68;33.45;;;;;;;3.75;58.35;99276.63;248651;1154;115275;-65
2021/03/23 07:03:45;;;;;;;72.58;33.63;;;;;;;3.81;58.13;99273.81;248618;1154;114835;-68
2021/03/23 07:09:19;;;;;;;67.00;31.78;;;;;;;3.87;57.98;99268.34;248721;1153;114507;-68
2021/03/23 07:14:36;;;;;;;63.58;31.93;;;;;;;4.02;57.98;99265.23;248650;1153;115104;-68
2021/03/23 07:19:47;;;;;;;64.13;31.50;;;;;;;4.14;58.13;99266.59;248626;1153;114711;-67
2021/03/23 07:24:58;;;;;;;55.40;27.48;;;;;;;4.19;57.92;99271.73;248660;1153;114748;-69
2021/03/23 07:30:32;;;;;;;65.98;32.05;;;;;;;4.25;57.62;99277.67;245410;1161;114901;-72
2021/03/23 07:35:40;;;;;;;58.33;28.00;;;;;;;4.30;57.49;99281.92;248701;1154;114928;-70
2021/03/23 07:40:46;;;;;;;68.10;29.93;;;;;;;4.38;57.56;99275.50;248662;1154;115337;-72
2021/03/23 07:46:00;;;;;;;56.85;26.68;;;;;;;4.50;57.31;99267.17;248574;1154;114331;-71
2021/03/23 07:51:32;;;;;;;56.33;27.70;;;;;;;4.59;57.20;99273.06;248631;1159;115245;-69
2021/03/23 07:56:56;;;;;;;54.38;27.30;;;;;;;4.69;57.17;99267.42;248641;1154;114641;-71
2021/03/23 08:02:41;;;;;;;55.78;25.93;;;;;;;4.84;57.30;99267.80;248068;1153;114333;-70
2021/03/23 08:08:17;;;;;;;57.23;27.10;;;;;;;4.90;56.86;99268.44;248220;1156;115267;-70
2021/03/23 08:13:38;;;;;;;51.90;26.58;;;;;;;4.87;56.43;99268.55;248556;1154;114781;-73
2021/03/23 08:18:48;;;;;;;49.28;23.68;;;;;;;4.91;56.72;99267.52;248650;1154;114573;-73
2021/03/23 08:24:19;;;;;;;51.75;27.30;;;;;;;4.95;56.64;99261.21;248666;1154;115132;-71
2021/03/23 08:30:03;;;;;;;64.55;27.85;;;;;;;5.07;56.26;99262.56;248585;1154;114514;-68
2021/03/23 08:35:23;;;;;;;52.15;26.08;;;;;;;5.09;56.25;99259.86;248545;1154;115428;-69
2021/03/23 08:40:53;;;;;;;51.58;26.68;;;;;;;5.23;56.64;99262.88;248555;1159;114969;-70
2021/03/23 08:45:57;;;;;;;48.15;25.63;;;;;;;5.38;56.60;99267.58;248525;1153;114780;-69
2021/03/23 08:51:05;;;;;;;46.65;25.08;;;;;;;5.41;55.53;99271.89;248524;1155;114683;-69
2021/03/23 08:56:09;;;;;;;49.17;23.63;;;;;;;5.48;56.14;99277.80;248529;1153;115766;-69
2021/03/23 09:01:37;;;;;;;51.53;23.35;;;;;;;5.48;55.76;99283.08;248653;1153;115494;-68
2021/03/23 09:06:50;;;;;;;47.05;24.48;;;;;;;5.55;55.69;99277.50;248674;1154;115054;-69
2021/03/23 09:12:02;;;;;;;52.65;24.55;;;;;;;5.69;56.14;99277.83;248773;1154;114724;-68
2021/03/23 09:17:05;;;;;;;45.90;21.17;;;;;;;5.84;56.14;99272.88;247969;1154;114770;-70
2021/03/23 09:22:27;;;;;;;43.43;20.60;;;;;;;5.90;55.26;99273.49;248449;1155;115112;-70
2021/03/23 09:27:36;;;;;;;42.20;19.23;;;;;;;5.99;55.56;99264.39;248579;1154;115038;-68
2021/03/23 09:33:14;;;;;;;38.00;20.30;;;;;;;6.07;55.06;99261.44;248662;1153;114642;-69
2021/03/23 09:38:37;;;;;;;45.68;21.23;;;;;;;6.20;55.34;99254.73;248599;1154;114781;-68
2021/03/23 09:43:41;;;;;;;47.05;19.45;;;;;;;6.37;55.19;99252.26;248556;1154;114904;-71
2021/03/23 09:48:47;;;;;;;41.88;18.25;;;;;;;6.59;55.19;99249.59;248737;1153;115115;-70
2021/03/23 09:53:53;;;;;;;38.43;18.95;;;;;;;6.81;55.16;99248.66;248587;1153;115008;-72
2021/03/23 09:59:27;;;;;;;40.25;18.60;;;;;;;6.88;54.86;99256.26;248644;1153;115036;-71
2021/03/23 10:04:33;;;;;;;35.75;16.98;;;;;;;6.87;54.90;99243.97;248634;1159;115057;-71
2021/03/23 10:09:37;;;;;;;;;;;;;;;6.85;54.73;99250.23;248642;1159;114967;-70
2021/03/23 10:14:41;;;;;;;25.90;11.40;;;;;;;6.81;54.51;99244.23;248634;1154;101109;-71
2021/03/23 10:19:56;;;;;;;17.80;8.55;;;;;;;6.79;54.41;99250.50;248683;1152;114345;-71
2021/03/23 10:25:01;;;;;;;19.88;8.38;;;;;;;6.81;54.86;99244.23;248741;1153;114727;-71
2021/03/23 10:30:07;;;;;;;;;;;;;;;6.90;54.75;99242.13;248467;1159;114517;-71
2021/03/23 10:35:27;;;;;;;18.43;6.55;;;;;;;7.00;53.81;99240.79;248653;1153;101610;-70
2021/03/23 10:40:38;;;;;;;16.25;6.70;;;;;;;6.98;54.51;99239.98;248596;1155;114528;-68
2021/03/23 10:45:44;;;;;;;13.75;6.45;;;;;;;7.06;54.59;99235.20;246268;1153;114997;-68
2021/03/23 10:51:10;;;;;;;11.43;6.20;;;;;;;7.15;54.24;99231.30;247663;1154;114611;-74
2021/03/23 10:56:21;;;;;;;15.10;6.80;;;;;;;7.22;53.78;99244.18;248626;1159;114635;-73
2021/03/23 11:01:25;;;;;;;14.18;6.25;;;;;;;7.26;54.22;99240.46;248786;1152;114345;-73
2021/03/23 11:06:34;;;;;;;15.43;6.30;;;;;;;7.33;53.47;99236.60;248675;1154;114251;-73
2021/03/23 11:11:38;;;;;;;14.45;7.23;;;;;;;7.41;54.30;99243.36;248251;1152;114882;-71
2021/03/23 11:16:44;;;;;;;15.88;7.25;;;;;;;7.44;53.99;99237.89;248799;1154;114397;-72
2021/03/23 11:21:47;;;;;;;12.73;6.03;;;;;;;7.47;53.98;99222.76;248687;1154;114521;-71
2021/03/23 11:26:50;;;;;;;11.48;5.98;;;;;;;7.52;53.27;99227.83;248702;1153;114480;-73
2021/03/23 11:31:54;;;;;;;13.25;5.98;;;;;;;7.61;53.57;99214.17;248666;1154;114749;-73
2021/03/23 11:36:58;;;;;;;9.28;5.20;;;;;;;7.68;52.89;99218.24;248656;1153;114580;-72
2021/03/23 11:42:17;;;;;;;9.00;5.03;;;;;;;7.73;52.75;99213.56;248737;1159;113834;-72
2021/03/23 11:47:44;;;;;;;12.43;5.43;;;;;;;7.75;53.09;99211.72;246896;1159;114414;-74
2021/03/23 11:52:52;;;;;;;7.48;4.73;;;;;;;7.87;53.15;99214.70;247702;1154;114733;-73
2021/03/23 11:58:16;;;;;;;8.15;4.50;;;;;;;7.93;52.09;99207.31;247471;1155;114660;-76
2021/03/23 12:03:21;;;;;;;15.87;5.83;;;;;;;7.99;52.00;99209.67;246363;1153;114409;-73
2021/03/23 12:08:35;;;;;;;12.70;4.50;;;;;;;8.02;52.01;99209.53;247972;1153;115028;-74
2021/03/23 12:13:48;;;;;;;9.38;4.98;;;;;;;8.10;52.16;99208.29;247924;1154;115429;-73
2021/03/23 12:19:03;;;;;;;11.90;5.25;;;;;;;8.17;51.77;99205.25;248633;1153;114823;-74
2021/03/23 12:24:06;;;;;;;10.95;5.18;;;;;;;8.27;51.68;99203.01;248024;1154;116538;-73
2021/03/23 12:29:09;;;;;;;9.20;4.83;;;;;;;8.38;51.49;99208.66;247865;1153;114983;-69
2021/03/23 12:34:12;;;;;;;16.78;5.85;;;;;;;8.43;51.75;99213.74;248711;1153;114342;-67
2021/03/23 12:39:18;;;;;;;15.88;5.65;;;;;;;8.51;51.42;99212.41;248626;1159;114572;-68
2021/03/23 12:44:23;;;;;;;12.03;5.30;;;;;;;8.61;51.65;99209.30;248652;1153;114883;-68
2021/03/23 12:49:26;;;;;;;12.83;5.18;;;;;;;8.71;51.40;99210.53;248619;1159;114852;-68
2021/03/23 12:54:37;;;;;;;10.58;5.13;;;;;;;8.82;51.36;99209.97;248708;1154;115973;-67
2021/03/23 12:59:40;;;;;;;13.43;5.43;;;;;;;8.79;50.66;99221.59;248753;1153;114793;-66
2021/03/23 13:04:43;;;;;;;12.15;5.90;;;;;;;8.79;50.80;99205.67;248714;1154;114424;-68
2021/03/23 13:09:53;;;;;;;12.40;6.33;;;;;;;8.83;50.82;99216.98;248766;1154;114700;-67
2021/03/23 13:14:56;;;;;;;11.05;5.90;;;;;;;8.84;50.65;99214.27;248729;1154;114043;-67
2021/03/23 13:19:58;;;;;;;13.33;6.20;;;;;;;8.81;50.90;99203.81;248735;1153;114463;-68
2021/03/23 13:25:05;;;;;;;12.58;6.90;;;;;;;8.83;50.76;99204.60;248664;1153;114655;-68
2021/03/23 13:30:23;;;;;;;14.68;7.28;;;;;;;8.83;50.51;99204.60;247679;1159;115047;-67
2021/03/23 13:35:29;;;;;;;13.40;6.63;;;;;;;8.81;50.54;99205.61;248764;1153;114749;-68
2021/03/23 13:40:33;;;;;;;14.40;7.65;;;;;;;8.81;50.63;99208.27;248794;1153;114872;-67
2021/03/23 13:45:42;;;;;;;17.83;7.98;;;;;;;8.78;50.07;99206.63;248707;1153;115394;-64
2021/03/23 13:50:46;;;;;;;13.50;7.30;;;;;;;8.72;50.39;99210.44;248646;1153;114583;-66
2021/03/23 13:55:49;;;;;;;12.80;7.33;;;;;;;8.71;50.30;99203.42;248650;1155;114645;-66
2021/03/23 14:00:52;;;;;;;14.78;7.70;;;;;;;8.73;50.68;99206.02;248691;1153;114894;-67
2021/03/23 14:05:56;;;;;;;14.70;7.85;;;;;;;8.71;50.63;99203.42;248592;1154;114559;-65
2021/03/23 14:11:03;;;;;;;14.68;7.90;;;;;;;8.70;50.55;99203.52;248618;1153;114698;-68
2021/03/23 14:16:06;;;;;;;15.73;8.25;;;;;;;8.66;50.63;99200.17;248574;1154;115071;-66
2021/03/23 14:21:16;;;;;;;14.15;8.45;;;;;;;8.67;50.40;99203.67;248731;1153;114677;-65
2021/03/23 14:26:19;;;;;;;14.58;8.23;;;;;;;8.69;50.31;99201.78;248784;1154;114527;-66
2021/03/23 14:31:24;;;;;;;18.08;9.08;;;;;;;8.70;50.81;99208.83;248816;1153;114381;-65
2021/03/23 14:36:29;;;;;;;25.45;13.10;;;;;;;8.70;50.27;99201.72;248638;1153;114906;-64
2021/03/23 14:41:45;;;;;;;19.13;9.95;;;;;;;8.72;50.35;99206.94;248718;1153;115189;-65
2021/03/23 14:47:24;;;;;;;20.93;10.27;;;;;;;8.68;50.62;99208.89;247234;1159;114938;-66
2021/03/23 14:52:31;;;;;;;17.30;10.95;;;;;;;8.67;50.78;99206.33;248614;1154;115469;-68
2021/03/23 14:57:39;;;;;;;20.10;10.05;;;;;;;8.67;50.52;99207.19;248477;1154;118502;-65
2021/03/23 15:02:43;;;;;;;22.40;10.87;;;;;;;8.72;50.76;99205.13;248533;1153;114830;-70
2021/03/23 15:07:46;;;;;;;20.10;11.30;;;;;;;8.79;50.37;99204.82;248589;1153;114825;-70
2021/03/23 15:12:51;;;;;;;24.38;12.33;;;;;;;8.79;50.82;99196.86;248649;1154;115365;-71
2021/03/23 15:17:54;;;;;;;22.65;12.78;;;;;;;8.78;50.39;99209.28;248583;1154;114409;-70
2021/03/23 15:23:01;;;;;;;21.53;12.13;;;;;;;8.78;50.83;99213.73;248643;1154;114667;-70
2021/03/23 15:28:05;;;;;;;20.98;12.70;;;;;;;8.79;50.59;99210.98;248665;1153;114874;-72
2021/03/23 15:33:08;;;;;;;23.35;12.75;;;;;;;8.80;50.79;99210.06;248728;1153;114665;-73
2021/03/23 15:38:33;;;;;;;21.53;12.05;;;;;;;8.79;50.27;99220.74;248608;1154;114768;-71
2021/03/23 15:43:37;;;;;;;18.25;10.63;;;;;;;8.74;51.03;99224.50;248783;1153;114391;-71
2021/03/23 15:48:41;;;;;;;18.43;10.78;;;;;;;8.70;50.57;99224.75;248123;1159;115675;-69
2021/03/23 15:53:44;;;;;;;22.55;11.35;;;;;;;8.65;50.60;99227.61;248546;1153;114961;-70
2021/03/23 15:58:47;;;;;;;27.23;11.88;;;;;;;8.63;50.67;99237.47;248583;1159;114792;-70
2021/03/23 16:03:51;;;;;;;20.83;11.38;;;;;;;8.69;50.51;99241.58;248616;1159;115862;-69
2021/03/23 16:08:57;;;;;;;22.85;12.10;;;;;;;8.72;50.65;99236.97;248621;1153;114917;-69
2021/03/23 16:14:20;;;;;;;;;;;;;;;8.70;50.64;99230.91;248607;1158;114604;-69
2021/03/23 16:19:24;;;;;;;21.23;12.03;;;;;;;8.67;51.16;99236.36;248750;1153;105781;-70
2021/03/23 16:24:28;;;;;;;22.45;12.85;;;;;;;8.68;50.94;99242.52;248644;1153;114635;-70
2021/03/23 16:29:32;;;;;;;22.23;13.23;;;;;;;8.66;51.49;99239.08;248567;1154;114946;-71
2021/03/23 16:34:35;;;;;;;23.30;13.43;;;;;;;8.66;51.10;99239.08;248640;1154;115004;-72
2021/03/23 16:39:38;;;;;;;21.30;13.60;;;;;;;8.62;51.31;99248.14;248609;1155;115046;-71
2021/03/23 16:44:46;;;;;;;26.88;13.78;;;;;;;8.56;51.41;99251.09;248767;1154;115184;-70
2021/03/23 16:49:48;;;;;;;27.10;15.33;;;;;;;8.57;51.64;99258.98;248722;1153;114968;-71
2021/03/23 16:54:51;;;;;;;29.78;15.35;;;;;;;8.60;51.74;99263.30;248433;1153;114619;-73
2021/03/23 16:59:57;;;;;;;25.75;14.98;;;;;;;8.60;51.73;99263.30;248776;1153;114728;-76
2021/03/23 17:05:00;;;;;;;25.20;15.57;;;;;;;8.57;52.20;99268.75;248574;1154;114488;-76
2021/03/23 17:10:09;;;;;;;24.65;14.00;;;;;;;8.55;51.80;99278.56;248609;1154;114850;-75
2021/03/23 17:15:16;;;;;;;24.03;15.10;;;;;;;8.47;51.66;99284.25;248744;1153;114639;-74
2021/03/23 17:20:30;;;;;;;34.48;15.45;;;;;;;8.42;51.48;99286.26;248606;1156;115120;-73
2021/03/23 17:25:39;;;;;;;25.05;15.88;;;;;;;8.37;52.23;99294.42;248615;1153;114555;-75
2021/03/23 17:30:44;;;;;;;28.20;16.50;;;;;;;8.37;52.39;99301.52;248640;1153;114670;-75
2021/03/23 17:35:47;;;;;;;32.40;16.13;;;;;;;8.33;52.02;99307.91;248565;1154;114632;-75
2021/03/23 17:40:54;;;;;;;38.73;20.40;;;;;;;8.28;52.11;99311.63;248591;1154;114374;-74
2021/03/23 17:45:59;;;;;;;36.05;20.83;;;;;;;8.25;52.45;99316.22;248675;1154;115244;-73
2021/03/23 17:51:06;;;;;;;35.00;19.50;;;;;;;8.19;52.29;99317.39;248659;1159;114836;-73
2021/03/23 17:56:10;;;;;;;38.03;19.93;;;;;;;8.16;52.12;99324.63;248634;1159;115111;-74
2021/03/23 18:01:15;;;;;;;37.33;20.52;;;;;;;8.17;52.73;99326.34;248571;1154;114602;-72
2021/03/23 18:06:18;;;;;;;34.98;18.80;;;;;;;8.14;52.35;99329.98;248646;1154;114646;-71
2021/03/23 18:11:21;;;;;;;36.83;19.90;;;;;;;8.11;52.22;99327.48;247778;1159;115031;-74
2021/03/23 18:16:24;;;;;;;36.88;19.13;;;;;;;8.10;52.39;99332.87;248695;1154;115165;-72
2021/03/23 18:21:27;;;;;;;36.83;19.58;;;;;;;8.01;52.89;99339.45;248693;1154;114598;-72
2021/03/23 18:26:30;;;;;;;33.30;18.48;;;;;;;7.97;53.37;99340.52;248816;1153;114844;-72
2021/03/23 18:31:36;;;;;;;37.28;18.78;;;;;;;7.93;52.57;99345.11;248746;1154;115122;-73
2021/03/23 18:36:40;;;;;;;38.50;18.30;;;;;;;7.90;52.88;99341.74;246853;1153;115082;-75
2021/03/23 18:41:43;;;;;;;33.20;19.13;;;;;;;7.85;53.11;99341.97;248628;1153;114594;-73
2021/03/23 18:46:46;;;;;;;36.00;19.78;;;;;;;7.87;53.13;99349.83;248694;1154;114965;-73
2021/03/23 18:51:49;;;;;;;36.55;20.40;;;;;;;7.86;53.37;99343.67;247141;1153;114917;-74
2021/03/23 18:56:52;;;;;;;38.75;20.05;;;;;;;7.90;54.09;99347.05;248574;1154;114613;-73
2021/03/23 19:01:54;;;;;;;35.30;19.78;;;;;;;7.87;53.81;99344.53;248768;1153;114836;-73
2021/03/23 19:06:58;;;;;;;35.73;18.98;;;;;;;7.81;54.11;99351.84;248619;1153;115035;-72
2021/03/23 19:12:00;;;;;;;31.58;19.15;;;;;;;7.79;53.99;99352.84;248595;1153;115782;-72
2021/03/23 19:17:03;;;;;;;33.90;19.23;;;;;;;7.75;53.74;99353.92;248566;1154;114732;-72
2021/03/23 19:22:06;;;;;;;33.83;20.25;;;;;;;7.71;53.96;99357.61;247768;1154;114993;-73
2021/03/23 19:27:09;;;;;;;37.40;20.18;;;;;;;7.71;54.63;99353.20;248587;1153;115856;-75
2021/03/23 19:32:12;;;;;;;34.58;18.80;;;;;;;7.74;54.39;99360.98;248577;1154;115388;-75
2021/03/23 19:37:15;;;;;;;40.63;21.35;;;;;;;7.68;55.21;99358.63;248590;1161;114768;-74
2021/03/23 19:42:21;;;;;;;36.65;18.98;;;;;;;7.66;54.92;99359.62;248489;1154;115008;-76
2021/03/23 19:47:27;;;;;;;37.05;21.05;;;;;;;7.58;55.08;99366.13;248549;1154;115077;-74
2021/03/23 19:52:34;;;;;;;37.13;19.00;;;;;;;7.50;54.78;99360.28;248637;1154;114837;-74
2021/03/23 19:57:39;;;;;;;37.98;19.65;;;;;;;7.40;55.15;99368.70;248681;1153;115037;-75
2021/03/23 20:02:46;;;;;;;34.38;20.30;;;;;;;7.34;55.06;99372.51;248573;1153;115283;-75
2021/03/23 20:08:01;;;;;;;38.43;20.40;;;;;;;7.30;55.43;99370.89;248504;1153;114368;-74
2021/03/23 20:13:05;;;;;;;;;;;;;;;7.28;55.65;99368.33;248658;1154;114787;-75
2021/03/23 20:18:12;;;;;;;34.43;20.75;;;;;;;7.28;56.53;99370.97;248705;1154;100880;-73
2021/03/23 20:23:23;;;;;;;37.03;20.78;;;;;;;7.26;56.24;99380.75;248683;1159;114808;-75
2021/03/23 20:28:28;;;;;;;37.28;18.55;;;;;;;7.24;55.91;99372.04;248551;1154;114940;-76
2021/03/23 20:33:36;;;;;;;33.60;19.55;;;;;;;7.24;56.67;99379.98;248529;1154;114923;-78
2021/03/23 20:38:42;;;;;;;36.15;19.55;;;;;;;7.24;56.59;99387.92;248537;1153;115284;-65
2021/03/23 20:43:44;;;;;;;32.95;19.25;;;;;;;7.28;56.97;99392.15;248595;1159;115244;-66
2021/03/23 20:48:48;;;;;;;38.43;21.05;;;;;;;7.34;57.16;99396.33;247386;1159;115135;-68
2021/03/23 20:53:52;;;;;;;34.40;19.25;;;;;;;7.38;56.80;99402.35;248587;1153;114791;-64
2021/03/23 20:58:55;;;;;;;32.47;19.43;;;;;;;7.35;57.42;99404.20;248613;1154;114725;-63
2021/03/23 21:03:58;;;;;;;37.95;20.25;;;;;;;7.34;56.92;99415.72;248600;1153;114808;-63
2021/03/23 21:09:01;;;;;;;33.03;20.00;;;;;;;7.35;57.33;99420.08;248641;1154;114292;-62
2021/03/23 21:14:11;;;;;;;33.85;19.60;;;;;;;7.39;58.06;99418.16;248631;1154;114762;-65
2021/03/23 21:19:15;;;;;;;27.20;15.70;;;;;;;7.40;57.34;99426.95;248661;1154;114584;-65
2021/03/23 21:24:19;;;;;;;28.18;17.45;;;;;;;7.41;57.55;99434.00;247984;1155;114963;-69
2021/03/23 21:29:22;;;;;;;25.48;14.23;;;;;;;7.41;57.83;99431.35;248693;1153;114969;-67
2021/03/23 21:34:25;;;;;;;29.35;14.05;;;;;;;7.40;57.69;99419.88;248630;1158;114610;-66
2021/03/23 21:39:28;;;;;;;26.85;13.90;;;;;;;7.41;57.45;99431.35;248655;1153;114880;-67
2021/03/23 21:44:33;;;;;;;20.63;12.65;;;;;;;7.38;58.30;99442.92;248737;1154;114499;-66
2021/03/23 21:49:36;;;;;;;22.38;13.30;;;;;;;7.35;58.25;99441.27;248668;1153;114720;-66
2021/03/23 21:54:39;;;;;;;20.63;13.20;;;;;;;7.39;58.40;99435.84;248734;1153;114824;-66
2021/03/23 21:59:41;;;;;;;25.13;13.25;;;;;;;7.42;58.40;99438.36;248787;1154;114726;-66
2021/03/23 22:04:45;;;;;;;24.65;12.60;;;;;;;7.41;58.28;99447.23;248678;1158;114799;-65
2021/03/23 22:09:48;;;;;;;21.28;11.83;;;;;;;7.35;58.65;99443.91;248641;1153;114704;-66
2021/03/23 22:14:50;;;;;;;20.73;12.63;;;;;;;7.32;58.84;99448.47;248645;1153;114697;-66
2021/03/23 22:19:53;;;;;;;24.33;13.30;;;;;;;7.30;58.73;99450.31;248582;1153;114599;-67
2021/03/23 22:24:56;;;;;;;19.98;12.85;;;;;;;7.32;59.24;99459.92;248581;1153;114476;-64
2021/03/23 22:29:58;;;;;;;23.70;13.83;;;;;;;7.36;58.84;99458.00;248635;1153;114844;-64
2021/03/23 22:35:01;;;;;;;22.75;13.53;;;;;;;7.35;59.38;99456.29;248611;1155;114941;-68
2021/03/23 22:40:05;;;;;;;24.33;14.25;;;;;;;7.31;59.71;99463.50;248676;1159;115481;-69
2021/03/23 22:45:09;;;;;;;26.68;15.15;;;;;;;7.30;60.16;99461.79;248565;1153;114549;-69
2021/03/23 22:50:23;;;;;;;30.55;15.25;;;;;;;7.24;60.32;99462.03;248633;1159;114833;-64
2021/03/23 22:55:27;;;;;;;28.03;16.50;;;;;;;7.18;60.21;99461.43;248619;1153;114592;-64
2021/03/23 23:00:38;;;;;;;24.68;15.35;;;;;;;7.15;59.88;99458.91;248819;1153;114925;-66
2021/03/23 23:05:47;;;;;;;28.85;17.23;;;;;;;7.14;60.37;99460.70;248629;1153;114948;-65
2021/03/23 23:10:55;;;;;;;24.95;16.05;;;;;;;7.09;60.71;99457.36;248835;1154;114912;-67
2021/03/23 23:15:57;;;;;;;22.13;15.20;;;;;;;7.11;60.58;99458.17;248744;1153;114607;-66
2021/03/23 23:21:10;;;;;;;24.40;16.08;;;;;;;7.10;61.52;99456.46;248838;1153;115468;-65
2021/03/23 23:26:18;;;;;;;26.85;16.73;;;;;;;7.09;60.85;99465.30;248771;1154;115326;-66